Collins Center, NY (14035)

2:44 PM EDT on July 25, 2016 (GMT -0400)
Shirley | | Change Station
Active Advisory: Beach Hazard Statement

Elev 1056 ft 42.58 °N, 78.92 °W | Updated 14 seconds ago

Partly Cloudy
Partly Cloudy
74.1 °F
Feels Like 72 °F
N
1.8
Wind Variable Wind from South
Gusts 2.5 mph

Today
High -- | Low -- °F
--% Chance of Precip.
Yesterday
High -- | Low -- °F
Precip. -- in
Pressure 29.88 in
Visibility 10.0 miles
Clouds Few 12000 ft
Heat Index 72 °F
Dew Point 71 °F
Humidity 91%
Rainfall 0.85 in
Snow Depth Not available.
6:01 AM 8:42 PM
Waning Gibbous, 63% visible
METAR KDKK 251753Z AUTO 21008KT 10SM FEW120 23/22 A2989 RMK AO2 LTG DSNT E-S RAE52 SLP116 P0001 60064 T02280217 10272 20222 55003 $
Pressure 29.88 in
Visibility 10.0 miles
Clouds Few 12000 ft
Heat Index 72 °F
Dew Point 71 °F
Humidity 91%
Rainfall 0.85 in
Snow Depth Not available.
6:01 AM 8:42 PM
Waning Gibbous, 63% visible
METAR KDKK 251753Z AUTO 21008KT 10SM FEW120 23/22 A2989 RMK AO2 LTG DSNT E-S RAE52 SLP116 P0001 60064 T02280217 10272 20222 55003 $
Record highs are possible for parts of the Northeast Monday and Tuesday, as parts of the central U.S. take a little breather from the worst of summer's dog day heat.

Expansive high pressure in the upper atmosphere will focus on parts of the East and West this week, sending heat indices well into the triple digits from the Mid-Atlantic states into the South.

10-Day Weather Forecast

Almanac

Astronomy

Jul. 25, 2016 Rise Set
Actual Time
Civil Twilight
Nautical Twilight
Astronomical Twilight
Moon
Length of Visible Light
Length of Day
Tomorrow will be .
, % of the Moon is Illuminated

Today's Extremes

State Highs State Lows

Community

WunderPhotos

Upload Photos

1,927,370 photos uploaded!

WunderBlog® & News

Nearby

Air Quality

  Air Quality AQ Index Pollutant
Not available.

Snow Depth

Station Depth Elevation

Earthquake Activity

City Distance Mag. Time & Date
Minimum magnitude displayed is 2.5.

Coastal Water Temperatures

Place Temperature

Stations

Nearby Weather Stations

Station Location Temp. Windchill Dew Point Humidity Wind Precip. Elev Updated Type
                   

Watches & Warnings

Beach Hazard Statement
Issued: 2:01 PM EDT Jul. 25, 2016 – National Weather Service

... Beach hazards statement remains in effect until 8 PM EDT this
evening...

* locations... beaches of northern Erie and southern Erie
counties.

* Timing... through early this evening.

* Impacts... strong currents and dangerous swimming conditions.

Precautionary/preparedness actions...

A beach hazards statement is issued when there is a high swim
risk. This means life threatening waves and currents are
expected. Stay out of the water and stay away from dangerous
areas like piers and breakwalls.